Time;durP1;ratioP1;P1;durP2;ratioP2;P2;SDS_P1;SDS_P2;PMS_P1;PMS_P2;Temp;Humidity;BMP_temperature;BMP_pressure;BME280_temperature;BME280_humidity;BME280_pressure;Samples;Min_cycle;Max_cycle;Signal;HPM_P1;HPM_P2
2023/02/20 00:00:31;;;;;;;10.00;5.45;;;;;;;5.53;100.00;99234.38;4192455;28;20048;-76
2023/02/20 00:02:32;;;;;;;9.38;4.63;;;;;;;5.56;100.00;99231.81;4191432;28;20036;-76
2023/02/20 00:04:32;;;;;;;7.40;4.65;;;;;;;5.61;100.00;99250.81;4194547;28;20126;-76
2023/02/20 00:06:33;;;;;;;7.95;4.80;;;;;;;5.57;100.00;99249.09;4194686;28;20044;-76
2023/02/20 00:08:33;;;;;;;8.68;4.30;;;;;;;5.57;100.00;99251.81;4192979;28;20362;-76
2023/02/20 00:10:33;;;;;;;8.25;4.93;;;;;;;5.52;100.00;99246.50;4194620;28;20056;-76
2023/02/20 00:12:34;;;;;;;8.45;3.95;;;;;;;5.54;100.00;99249.72;4183949;28;20123;-76
2023/02/20 00:14:34;;;;;;;9.77;4.68;;;;;;;5.60;100.00;99240.97;4192315;28;20041;-76
2023/02/20 00:16:34;;;;;;;8.80;4.50;;;;;;;5.58;100.00;99237.78;4193078;28;20083;-76
2023/02/20 00:18:34;;;;;;;6.55;3.88;;;;;;;5.56;100.00;99247.47;4189975;28;20052;-76
2023/02/20 00:20:36;;;;;;;7.13;4.07;;;;;;;5.60;100.00;99246.47;4187925;28;20491;-76
2023/02/20 00:22:36;;;;;;;8.07;4.03;;;;;;;5.62;100.00;99246.16;4192637;28;20048;-76
2023/02/20 00:24:36;;;;;;;8.20;3.95;;;;;;;5.58;100.00;99246.00;4193954;28;20071;-76
2023/02/20 00:26:37;;;;;;;7.60;4.65;;;;;;;5.55;100.00;99240.38;4193026;28;20091;-76
2023/02/20 00:28:39;;;;;;;7.13;4.40;;;;;;;5.55;100.00;99252.16;4194369;28;20077;-76
2023/02/20 00:30:39;;;;;;;9.00;4.40;;;;;;;5.54;100.00;99245.03;4187066;28;20048;-76
2023/02/20 00:32:39;;;;;;;7.45;4.68;;;;;;;5.62;100.00;99248.88;4185899;28;20041;-76
2023/02/20 00:34:39;;;;;;;6.70;3.97;;;;;;;5.59;100.00;99252.28;4191556;28;20137;-76
2023/02/20 00:36:40;;;;;;;9.60;4.47;;;;;;;5.55;100.00;99248.59;4192414;28;20547;-76
2023/02/20 00:38:42;;;;;;;10.63;4.47;;;;;;;5.52;100.00;99258.28;4194460;28;20123;-76
2023/02/20 00:40:43;;;;;;;;;;;;;;;5.44;100.00;99252.81;4192267;28;20117;-76
2023/02/20 00:42:43;;;;;;;7.57;4.47;;;;;;;5.36;100.00;99252.50;4194617;28;19920;-76
2023/02/20 00:44:43;;;;;;;8.02;4.43;;;;;;;5.36;100.00;99243.44;4194028;28;20986;-76
2023/02/20 00:46:44;;;;;;;7.25;4.03;;;;;;;5.27;100.00;99235.22;4194003;28;20392;-76
2023/02/20 00:48:44;;;;;;;6.53;4.50;;;;;;;5.22;100.00;99240.09;4188231;28;20075;-76
2023/02/20 00:50:44;;;;;;;9.80;5.18;;;;;;;5.15;100.00;99240.56;4195296;28;20063;-76
2023/02/20 00:52:45;;;;;;;6.70;3.95;;;;;;;5.12;100.00;99245.88;4192523;28;20072;-76
2023/02/20 00:54:45;;;;;;;8.48;4.50;;;;;;;5.05;100.00;99241.72;4191308;28;20195;-76
2023/02/20 00:56:46;;;;;;;6.68;4.25;;;;;;;4.98;100.00;99241.38;4195914;28;20477;-76
2023/02/20 00:58:46;;;;;;;8.20;4.63;;;;;;;5.00;100.00;99233.63;4192950;28;20093;-76
2023/02/20 01:00:46;;;;;;;7.88;4.30;;;;;;;5.00;100.00;99232.84;4190958;28;20084;-76
2023/02/20 01:02:47;;;;;;;6.68;3.97;;;;;;;4.96;100.00;99232.66;4189542;28;20101;-76
2023/02/20 01:04:47;;;;;;;6.18;4.00;;;;;;;5.00;100.00;99233.63;4189687;28;20369;-76
2023/02/20 01:06:48;;;;;;;7.60;3.75;;;;;;;5.00;100.00;99241.06;4193462;28;20615;-76
2023/02/20 01:08:48;;;;;;;7.75;3.80;;;;;;;4.97;100.00;99239.78;4196199;28;20114;-76
2023/02/20 01:10:49;;;;;;;6.93;3.95;;;;;;;5.05;100.00;99249.13;4192294;28;20049;-76
2023/02/20 01:12:49;;;;;;;8.38;4.20;;;;;;;5.07;100.00;99235.91;4195938;28;20166;-76
2023/02/20 01:14:50;;;;;;;6.45;3.88;;;;;;;5.01;100.00;99234.44;4189201;28;20052;-76
2023/02/20 01:16:52;;;;;;;6.22;4.00;;;;;;;5.10;100.00;99234.44;4193700;28;20048;-76
2023/02/20 01:18:52;;;;;;;8.52;3.83;;;;;;;5.04;100.00;99236.53;4188381;28;20041;-76
2023/02/20 01:20:52;;;;;;;7.15;3.80;;;;;;;5.06;100.00;99234.28;4194902;28;20051;-76
2023/02/20 01:22:53;;;;;;;5.75;3.63;;;;;;;5.10;100.00;99231.69;4189021;28;20041;-76
2023/02/20 01:24:53;;;;;;;7.25;4.00;;;;;;;5.09;100.00;99228.16;4195262;28;20048;-76
2023/02/20 01:26:53;;;;;;;6.93;3.67;;;;;;;5.10;100.00;99223.47;4191916;28;20045;-76
2023/02/20 01:28:54;;;;;;;9.50;4.40;;;;;;;5.06;100.00;99232.34;4188482;28;20053;-76
2023/02/20 01:30:54;;;;;;;6.50;3.88;;;;;;;5.05;100.00;99229.94;4195185;28;20040;-76
2023/02/20 01:32:54;;;;;;;5.90;3.92;;;;;;;5.04;100.00;99214.59;4194414;28;20087;-76
2023/02/20 01:34:54;;;;;;;7.82;4.53;;;;;;;5.04;100.00;99220.06;4192480;28;20495;-76
2023/02/20 01:36:55;;;;;;;7.07;4.25;;;;;;;5.03;100.00;99218.47;4193819;28;20094;-76
2023/02/20 01:38:56;;;;;;;8.70;5.30;;;;;;;4.98;100.00;99218.63;4192532;28;20214;-76
2023/02/20 01:40:56;;;;;;;6.43;4.03;;;;;;;4.94;100.00;99207.50;4192123;28;20491;-76
2023/02/20 01:42:56;;;;;;;7.55;4.30;;;;;;;4.87;100.00;99215.41;4187642;28;20503;-76
2023/02/20 01:45:19;;;;;;;7.68;4.00;;;;;;;4.88;100.00;99203.31;4188578;28;20068;-76
2023/02/20 01:47:22;;;;;;;5.75;3.67;;;;;;;4.90;100.00;99201.06;4192367;28;20418;-76
2023/02/20 01:49:37;;;;;;;6.70;4.15;;;;;;;4.88;100.00;99189.63;4190157;28;20048;-76
2023/02/20 01:52:06;;;;;;;6.53;4.05;;;;;;;4.95;100.00;99197.34;4192115;28;20052;-76
2023/02/20 01:54:10;;;;;;;8.38;4.30;;;;;;;4.95;100.00;99189.91;4182189;28;20376;-76
2023/02/20 01:56:11;;;;;;;5.57;3.80;;;;;;;4.88;100.00;99184.13;4191028;28;20427;-76
2023/02/20 01:58:18;;;;;;;6.88;4.32;;;;;;;4.84;100.00;99180.41;4190192;28;20587;-76
2023/02/20 02:00:23;;;;;;;7.95;4.38;;;;;;;4.83;100.00;99184.28;4195766;28;20144;-76
2023/02/20 02:02:27;;;;;;;6.43;4.05;;;;;;;4.80;100.00;99184.94;4191121;28;20048;-76
2023/02/20 02:04:28;;;;;;;6.68;3.72;;;;;;;4.82;100.00;99184.59;4193021;28;20373;-76
2023/02/20 02:06:30;;;;;;;7.50;4.32;;;;;;;4.79;100.00;99194.25;4193002;28;20142;-77
2023/02/20 02:08:31;;;;;;;6.95;3.78;;;;;;;4.82;100.00;99187.34;4191242;28;20480;-76
2023/02/20 02:10:58;;;;;;;6.20;4.00;;;;;;;4.78;100.00;99184.44;4191605;28;20086;-76
2023/02/20 02:12:59;;;;;;;8.07;4.60;;;;;;;4.74;100.00;99180.75;4198413;28;21017;-76
2023/02/20 02:15:00;;;;;;;7.15;4.15;;;;;;;4.74;100.00;99184.28;4194532;28;20418;-76
2023/02/20 02:17:12;;;;;;;7.38;4.53;;;;;;;4.73;100.00;99187.34;4192683;28;20041;-76
2023/02/20 02:19:39;;;;;;;10.05;4.63;;;;;;;4.70;100.00;99185.22;4198923;28;20050;-75
2023/02/20 02:21:59;;;;;;;7.65;3.97;;;;;;;4.80;100.00;99184.94;4191856;28;20060;-76
2023/02/20 02:24:30;;;;;;;8.80;4.38;;;;;;;4.86;100.00;99178.13;4191251;28;20041;-76
2023/02/20 02:26:55;;;;;;;7.30;4.43;;;;;;;4.82;100.00;99190.91;4191295;28;20139;-76
2023/02/20 02:29:33;;;;;;;7.30;4.45;;;;;;;4.74;100.00;99191.69;4192750;28;20046;-76
2023/02/20 02:32:00;;;;;;;8.93;4.60;;;;;;;4.73;100.00;99192.84;4193148;28;20052;-77
2023/02/20 02:34:11;;;;;;;7.60;4.80;;;;;;;4.71;100.00;99190.38;4190689;28;20695;-76
2023/02/20 02:36:26;;;;;;;11.30;5.22;;;;;;;4.68;100.00;99191.03;4191102;28;20089;-76
2023/02/20 02:39:19;;;;;;;9.68;5.57;;;;;;;4.70;100.00;99190.72;4192163;28;20384;-76
2023/02/20 02:41:26;;;;;;;9.35;5.22;;;;;;;4.61;100.00;99185.22;4139478;28;20586;-75
2023/02/20 02:43:39;;;;;;;9.38;4.93;;;;;;;4.58;100.00;99171.38;4191347;28;20055;-76
2023/02/20 02:45:50;;;;;;;8.82;4.53;;;;;;;4.53;100.00;99171.53;4194246;28;20511;-76
2023/02/20 02:48:09;;;;;;;8.75;5.05;;;;;;;4.45;100.00;99167.63;4196530;28;20044;-76
2023/02/20 02:50:22;;;;;;;9.15;5.30;;;;;;;4.41;100.00;99163.94;4189590;28;20053;-76
2023/02/20 02:52:40;;;;;;;7.28;4.47;;;;;;;4.42;100.00;99162.81;4196197;28;20048;-76
2023/02/20 02:54:40;;;;;;;8.75;5.03;;;;;;;4.38;100.00;99156.34;4190972;28;20384;-76
2023/02/20 02:56:45;;;;;;;8.70;4.63;;;;;;;4.39;100.00;99160.72;4195533;28;20044;-76
2023/02/20 02:58:49;;;;;;;8.23;4.70;;;;;;;4.38;100.00;99170.03;4191496;28;20052;-76
2023/02/20 03:00:56;;;;;;;9.48;4.70;;;;;;;4.40;100.00;99160.41;4191247;28;20080;-76
2023/02/20 03:03:02;;;;;;;7.72;4.35;;;;;;;4.43;100.00;99169.91;4196292;28;20040;-75
2023/02/20 03:05:05;;;;;;;8.90;4.65;;;;;;;4.42;100.00;99171.84;4192313;28;20356;-76
2023/02/20 03:07:14;;;;;;;7.95;4.78;;;;;;;4.38;100.00;99164.56;4191951;28;20384;-76
2023/02/20 03:09:24;;;;;;;7.65;4.20;;;;;;;4.35;100.00;99162.47;4190647;28;20051;-75
2023/02/20 03:11:27;;;;;;;9.57;4.68;;;;;;;4.35;100.00;99173.44;4190545;28;20094;-76
2023/02/20 03:15:53;;;;;;;7.72;4.07;;;;;;;4.33;100.00;99160.06;4195255;28;20039;-75
2023/02/20 03:18:21;;;;;;;7.68;4.53;;;;;;;4.30;100.00;99160.69;4192233;28;20095;-75
2023/02/20 03:20:22;;;;;;;6.32;4.00;;;;;;;4.28;100.00;99168.44;4197159;28;20048;-78
2023/02/20 03:22:42;;;;;;;10.75;5.10;;;;;;;4.29;100.00;99180.19;4190960;28;20633;-75
2023/02/20 03:24:57;;;;;;;8.50;4.45;;;;;;;4.30;100.00;99176.31;4191270;28;20379;-75
2023/02/20 03:26:58;;;;;;;7.70;4.80;;;;;;;4.25;100.00;99171.81;4189587;28;20041;-76
2023/02/20 03:29:12;;;;;;;6.90;4.20;;;;;;;4.29;100.00;99161.81;4191457;28;20028;-75
2023/02/20 03:31:47;;;;;;;12.85;4.60;;;;;;;4.27;100.00;99164.06;4191425;28;20048;-75
2023/02/20 03:43:46;;;;;;;8.20;4.82;;;;;;;4.22;100.00;99153.28;4190233;28;20484;-75
2023/02/20 03:45:47;;;;;;;12.60;5.05;;;;;;;4.16;100.00;99143.59;4192837;28;20149;-75
2023/02/20 03:47:53;;;;;;;8.10;4.60;;;;;;;4.10;100.00;99137.47;4192083;28;20037;-76
2023/02/20 03:49:55;;;;;;;8.40;4.85;;;;;;;4.14;100.00;99127.50;4193641;28;20223;-78
2023/02/20 03:51:55;;;;;;;8.45;5.10;;;;;;;4.11;100.00;99133.59;4191366;28;20041;-77
2023/02/20 03:53:56;;;;;;;9.63;4.95;;;;;;;4.15;100.00;99129.09;4191064;28;20862;-77
2023/02/20 03:56:01;;;;;;;6.75;3.90;;;;;;;4.16;100.00;99122.50;4191932;28;20121;-78
2023/02/20 03:58:07;;;;;;;8.75;4.95;;;;;;;4.32;100.00;99133.81;4190611;28;20801;-77
2023/02/20 04:00:17;;;;;;;7.32;4.68;;;;;;;4.34;100.00;99141.69;4190082;28;20063;-77
2023/02/20 04:02:41;;;;;;;8.75;4.55;;;;;;;4.41;100.00;99150.25;4191122;28;20030;-77
2023/02/20 04:04:46;;;;;;;9.68;5.07;;;;;;;4.39;100.00;99161.53;4190865;28;20181;-77
2023/02/20 04:06:50;;;;;;;10.57;4.68;;;;;;;4.46;100.00;99159.09;4190904;28;20450;-77
2023/02/20 04:09:03;;;;;;;9.75;5.00;;;;;;;4.46;100.00;99155.56;4191174;28;20058;-77
2023/02/20 04:11:18;;;;;;;11.05;4.72;;;;;;;4.41;100.00;99150.25;4191393;28;20041;-77
2023/02/20 04:13:19;;;;;;;9.48;5.68;;;;;;;4.44;100.00;99149.59;4192975;28;20048;-77
2023/02/20 04:15:21;;;;;;;8.10;5.03;;;;;;;4.46;100.00;99147.34;4190461;28;20048;-77
2023/02/20 04:17:35;;;;;;;8.55;5.47;;;;;;;4.44;100.00;99161.34;4190969;28;20816;-77
2023/02/20 04:19:35;;;;;;;8.43;5.18;;;;;;;4.39;100.00;99167.00;4189839;28;20442;-77
2023/02/20 04:21:48;;;;;;;9.40;5.32;;;;;;;4.38;100.00;99165.38;4194754;28;20072;-77
2023/02/20 04:24:02;;;;;;;8.90;5.10;;;;;;;4.43;100.00;99161.69;4189020;28;20131;-77
2023/02/20 04:26:08;;;;;;;8.85;4.50;;;;;;;4.38;100.00;99159.88;4193079;28;20047;-77
2023/02/20 04:28:10;;;;;;;8.88;5.28;;;;;;;4.34;100.00;99161.69;4194251;28;20024;-77
2023/02/20 04:30:11;;;;;;;10.47;5.43;;;;;;;4.28;100.00;99164.88;4190782;28;20024;-77
2023/02/20 04:32:11;;;;;;;9.68;4.63;;;;;;;4.22;100.00;99172.47;4189612;28;20496;-78
2023/02/20 04:34:12;;;;;;;10.02;5.70;;;;;;;4.15;100.00;99170.19;4189955;28;20033;-78
2023/02/20 04:36:12;;;;;;;10.60;5.88;;;;;;;4.11;100.00;99165.66;4191298;28;20151;-77
2023/02/20 04:38:12;;;;;;;9.90;5.40;;;;;;;4.10;100.00;99169.50;4196030;28;20111;-77
2023/02/20 04:40:15;;;;;;;8.98;5.63;;;;;;;4.13;100.00;99171.59;4190773;28;20032;-77
2023/02/20 04:42:15;;;;;;;;;;;;;;;4.17;100.00;99169.88;4191405;28;20020;-77
2023/02/20 04:44:31;;;;;;;9.32;5.68;;;;;;;4.15;100.00;99164.72;4189250;28;19912;-77
2023/02/20 04:46:31;;;;;;;9.35;5.32;;;;;;;4.15;100.00;99170.19;4188111;28;20482;-77
2023/02/20 04:48:31;;;;;;;11.50;6.65;;;;;;;4.15;100.00;99185.81;4190020;28;20049;-77
2023/02/20 04:50:34;;;;;;;12.85;6.57;;;;;;;4.19;100.00;99176.63;4189635;28;20041;-77
2023/02/20 04:52:34;;;;;;;11.00;6.57;;;;;;;4.19;100.00;99187.59;4190984;28;20063;-77
2023/02/20 04:54:34;;;;;;;12.13;5.90;;;;;;;4.20;100.00;99191.94;4186384;28;20084;-77
2023/02/20 04:56:34;;;;;;;13.02;6.53;;;;;;;4.19;100.00;99187.59;4189411;28;20052;-77
2023/02/20 04:58:36;;;;;;;11.90;6.72;;;;;;;4.16;100.00;99185.50;4191202;28;20048;-77
2023/02/20 05:00:36;;;;;;;11.75;6.93;;;;;;;4.18;100.00;99183.22;4192164;28;20048;-77
2023/02/20 05:02:38;;;;;;;11.90;6.93;;;;;;;4.16;100.00;99176.47;4193242;28;20052;-77
2023/02/20 05:04:38;;;;;;;13.15;6.82;;;;;;;4.20;100.00;99177.44;4189675;28;20056;-77
2023/02/20 05:06:44;;;;;;;10.45;6.75;;;;;;;4.16;100.00;99165.50;4193381;28;20647;-77
2023/02/20 05:08:44;;;;;;;13.10;6.35;;;;;;;4.16;100.00;99155.38;4192233;28;20041;-77
2023/02/20 05:10:45;;;;;;;11.95;6.47;;;;;;;4.15;100.00;99147.47;4192451;28;20051;-77
2023/02/20 05:12:46;;;;;;;11.43;6.43;;;;;;;4.25;100.00;99144.41;4189029;28;20032;-77
2023/02/20 05:14:46;;;;;;;12.10;6.43;;;;;;;4.23;100.00;99147.47;4192953;28;20047;-77
2023/02/20 05:16:47;;;;;;;11.38;6.82;;;;;;;4.23;100.00;99146.69;4191023;28;20052;-77
2023/02/20 05:18:47;;;;;;;12.00;6.57;;;;;;;4.25;100.00;99146.34;4192128;28;20098;-77
2023/02/20 05:23:06;;;;;;;15.13;7.50;;;;;;;4.28;100.00;99129.28;4191394;28;20078;-77
2023/02/20 05:25:07;;;;;;;11.00;6.38;;;;;;;4.28;100.00;99138.28;4194315;28;20056;-77
2023/02/20 05:27:08;;;;;;;11.63;7.00;;;;;;;4.23;100.00;99124.78;4189373;28;20263;-77
2023/02/20 05:29:11;;;;;;;17.30;7.18;;;;;;;4.25;100.00;99124.44;4186358;28;20537;-77
2023/02/20 05:31:11;;;;;;;11.85;7.15;;;;;;;4.30;100.00;99118.78;4187932;28;20186;-77
2023/02/20 05:33:12;;;;;;;11.13;6.80;;;;;;;4.31;100.00;99117.69;4190405;28;20492;-77
2023/02/20 05:35:12;;;;;;;12.27;7.15;;;;;;;4.35;100.00;99126.88;4189161;28;20356;-77
2023/02/20 05:37:15;;;;;;;13.43;7.30;;;;;;;4.42;100.00;99121.72;4188220;28;20106;-77
2023/02/20 05:39:16;;;;;;;10.43;6.38;;;;;;;4.38;100.00;99104.28;4191633;28;20048;-77
2023/02/20 05:41:17;;;;;;;11.30;6.85;;;;;;;4.34;100.00;99098.66;4191649;28;20094;-77
2023/02/20 05:43:17;;;;;;;10.80;6.00;;;;;;;4.37;100.00;99095.25;4193133;28;20135;-77
2023/02/20 05:45:17;;;;;;;12.38;6.85;;;;;;;4.39;100.00;99087.56;4193333;28;20145;-77
2023/02/20 05:47:18;;;;;;;12.23;6.22;;;;;;;4.41;100.00;99076.28;4189042;28;20033;-77
2023/02/20 05:49:21;;;;;;;12.75;6.30;;;;;;;4.44;100.00;99075.63;4187939;28;20812;-77
2023/02/20 05:51:27;;;;;;;11.93;6.35;;;;;;;4.40;100.00;99069.97;4196216;28;20072;-77
2023/02/20 05:53:29;;;;;;;8.95;5.13;;;;;;;4.42;100.00;99075.13;4194570;28;20437;-77
2023/02/20 05:55:30;;;;;;;9.45;5.60;;;;;;;4.44;100.00;99062.72;4195408;28;20044;-77
2023/02/20 05:57:30;;;;;;;9.57;5.60;;;;;;;4.42;100.00;99072.41;4198869;28;20123;-77
2023/02/20 05:59:31;;;;;;;8.88;5.50;;;;;;;4.48;100.00;99082.88;4195101;28;20061;-77
2023/02/20 06:01:31;;;;;;;9.65;6.05;;;;;;;4.44;100.00;99073.69;4196070;28;20032;-77
2023/02/20 06:03:31;;;;;;;10.02;6.07;;;;;;;4.44;100.00;99068.19;4196724;28;20039;-77
2023/02/20 06:05:32;;;;;;;12.07;5.43;;;;;;;4.40;100.00;99061.75;4193066;28;20366;-77
2023/02/20 06:07:33;;;;;;;11.07;5.97;;;;;;;4.42;100.00;99056.75;4198381;28;20368;-77
2023/02/20 06:09:34;;;;;;;9.20;5.47;;;;;;;4.37;100.00;99062.41;4195538;28;20048;-77
2023/02/20 06:11:35;;;;;;;10.85;5.10;;;;;;;4.34;100.00;99063.03;4193857;28;20484;-77
2023/02/20 06:13:36;;;;;;;9.38;5.22;;;;;;;4.29;100.00;99063.19;4190750;28;20499;-77
2023/02/20 06:15:36;;;;;;;11.38;5.35;;;;;;;4.33;100.00;99055.16;4190982;28;20036;-77
2023/02/20 06:17:36;;;;;;;8.05;5.28;;;;;;;4.34;100.00;99062.25;4192464;28;20476;-77
2023/02/20 06:19:37;;;;;;;9.57;4.97;;;;;;;4.33;100.00;99055.16;4191228;28;20044;-77
2023/02/20 06:21:39;;;;;;;8.73;4.93;;;;;;;4.36;100.00;99074.47;4183575;28;20068;-77
2023/02/20 06:23:44;;;;;;;8.80;4.65;;;;;;;4.36;100.00;99092.84;4189490;28;20048;-77
2023/02/20 06:25:45;;;;;;;10.88;5.50;;;;;;;4.38;100.00;99083.19;4194726;28;20048;-76
2023/02/20 06:27:45;;;;;;;8.55;5.28;;;;;;;4.41;100.00;99068.84;4196761;28;20044;-77
2023/02/20 06:29:46;;;;;;;7.45;4.60;;;;;;;4.36;100.00;99069.00;4193185;28;20040;-79
2023/02/20 06:31:47;;;;;;;7.32;4.50;;;;;;;4.38;100.00;99066.75;4194728;28;20152;-76
2023/02/20 06:33:47;;;;;;;9.70;4.80;;;;;;;4.37;100.00;99059.66;4193693;28;20477;-76
2023/02/20 06:35:48;;;;;;;7.78;4.55;;;;;;;4.35;100.00;99069.34;4193242;28;20480;-76
2023/02/20 06:37:48;;;;;;;7.43;4.10;;;;;;;4.34;100.00;99046.59;4196142;28;20086;-77
2023/02/20 06:39:48;;;;;;;9.65;4.93;;;;;;;4.28;100.00;99049.81;4192994;28;20044;-77
2023/02/20 06:41:49;;;;;;;10.68;5.18;;;;;;;4.23;100.00;99057.09;4194047;28;20079;-76
2023/02/20 06:43:49;;;;;;;7.40;4.22;;;;;;;4.26;100.00;99049.34;4191044;28;20127;-76
2023/02/20 06:45:49;;;;;;;7.43;4.13;;;;;;;4.23;100.00;99053.56;4192044;28;20545;-77
2023/02/20 06:47:49;;;;;;;6.80;3.90;;;;;;;4.25;100.00;99059.50;4192970;28;20044;-76
2023/02/20 06:49:50;;;;;;;7.18;4.35;;;;;;;4.25;100.00;99064.97;4135317;28;20079;-77
2023/02/20 06:51:53;;;;;;;7.35;4.18;;;;;;;4.21;100.00;99055.78;4202551;28;20052;-77
2023/02/20 06:53:54;;;;;;;9.18;4.53;;;;;;;4.23;100.00;99061.78;4194049;28;20159;-76
2023/02/20 06:55:54;;;;;;;8.23;4.63;;;;;;;4.29;100.00;99076.91;4190696;28;20507;-77
2023/02/20 06:57:55;;;;;;;8.52;4.32;;;;;;;4.41;100.00;99070.78;4190968;28;20128;-77
2023/02/20 06:59:55;;;;;;;7.88;4.35;;;;;;;4.43;100.00;99069.31;4192546;28;20386;-76
2023/02/20 07:01:55;;;;;;;8.80;5.00;;;;;;;4.42;100.00;99055.97;4189858;28;20044;-76
2023/02/20 07:03:57;;;;;;;7.80;4.32;;;;;;;4.53;100.00;99050.94;4193383;28;20071;-77
2023/02/20 07:05:58;;;;;;;8.15;4.50;;;;;;;4.56;100.00;99053.06;4200598;28;20044;-77
2023/02/20 07:07:58;;;;;;;6.70;4.30;;;;;;;4.56;100.00;99053.84;4196377;28;20040;-76
2023/02/20 07:10:00;;;;;;;7.30;4.43;;;;;;;4.55;100.00;99040.44;4196489;28;20137;-77
2023/02/20 07:12:00;;;;;;;8.30;4.00;;;;;;;4.54;100.00;99044.31;4191319;28;20032;-76
2023/02/20 07:14:00;;;;;;;7.35;4.43;;;;;;;4.55;100.00;99054.16;4191570;28;20397;-77
2023/02/20 07:16:01;;;;;;;11.27;5.22;;;;;;;4.55;100.00;99045.94;4194687;28;20092;-77
2023/02/20 07:18:01;;;;;;;9.90;3.92;;;;;;;4.56;100.00;99044.84;4196131;28;20423;-77
2023/02/20 07:20:03;;;;;;;7.80;3.92;;;;;;;4.68;100.00;99044.97;4193351;28;20028;-76
2023/02/20 07:22:03;;;;;;;7.93;3.85;;;;;;;4.78;100.00;99044.63;4192248;28;20078;-77
2023/02/20 07:24:04;;;;;;;6.10;3.97;;;;;;;4.81;100.00;99037.69;4192077;28;20445;-77
2023/02/20 07:26:04;;;;;;;6.38;3.60;;;;;;;4.83;100.00;99029.94;4190775;28;20331;-77
2023/02/20 07:28:07;;;;;;;7.15;4.03;;;;;;;4.84;100.00;99026.88;4191147;28;20029;-77
2023/02/20 07:30:08;;;;;;;6.75;3.45;;;;;;;4.86;100.00;99024.59;4197141;28;20029;-77
2023/02/20 07:32:08;;;;;;;5.15;3.63;;;;;;;4.93;100.00;99016.69;4197587;28;20059;-77
2023/02/20 07:34:08;;;;;;;6.40;3.50;;;;;;;4.97;100.00;99003.94;4190886;28;20029;-77
2023/02/20 07:36:13;;;;;;;7.18;3.45;;;;;;;4.98;100.00;98999.25;4194382;28;20066;-77
2023/02/20 07:38:14;;;;;;;6.05;2.83;;;;;;;5.12;100.00;99015.47;4192247;28;20021;-77
2023/02/20 07:40:14;;;;;;;5.57;3.10;;;;;;;5.17;99.91;99001.59;4197649;28;20028;-77
2023/02/20 07:42:16;;;;;;;6.15;3.15;;;;;;;5.35;98.47;99003.09;4194477;28;20131;-77
2023/02/20 07:44:16;;;;;;;5.18;2.85;;;;;;;5.49;97.33;99002.88;4191879;28;20031;-77
2023/02/20 07:46:17;;;;;;;5.78;2.92;;;;;;;5.60;97.97;99013.13;4195860;28;20024;-77
2023/02/20 07:48:17;;;;;;;4.78;3.03;;;;;;;5.60;96.89;99002.16;4192381;28;20436;-77
2023/02/20 07:50:18;;;;;;;5.90;3.10;;;;;;;5.61;96.35;99000.22;4193306;28;20035;-77
2023/02/20 07:52:18;;;;;;;5.03;2.95;;;;;;;5.64;96.10;98989.41;4192304;28;20414;-77
2023/02/20 07:54:18;;;;;;;6.53;3.15;;;;;;;5.62;97.91;98999.06;4192419;28;20077;-77
2023/02/20 07:56:20;;;;;;;5.45;3.60;;;;;;;5.71;96.79;98993.53;4192017;28;20036;-77
2023/02/20 07:58:20;;;;;;;5.68;3.35;;;;;;;5.74;96.58;98995.63;4194856;28;20538;-77
2023/02/20 08:00:22;;;;;;;5.75;3.25;;;;;;;5.73;97.24;98981.09;4190464;28;20660;-77
2023/02/20 08:02:22;;;;;;;5.22;3.30;;;;;;;5.76;97.19;98998.84;4191063;28;20083;-77
2023/02/20 08:04:23;;;;;;;4.95;3.17;;;;;;;5.80;96.50;98997.84;4191385;28;20040;-77
2023/02/20 08:06:23;;;;;;;8.75;3.38;;;;;;;5.80;97.48;98997.03;4194136;28;20044;-77
2023/02/20 08:08:24;;;;;;;9.75;2.97;;;;;;;5.84;96.71;98989.72;4194068;28;20127;-77
2023/02/20 08:10:26;;;;;;;6.10;3.03;;;;;;;5.93;96.67;98985.00;4193902;28;20056;-77
2023/02/20 08:12:27;;;;;;;5.93;2.90;;;;;;;5.87;97.84;98991.81;4190874;28;20123;-77
2023/02/20 08:14:27;;;;;;;5.75;3.33;;;;;;;5.92;97.35;98977.91;4193385;28;20356;-77
2023/02/20 08:16:27;;;;;;;4.18;2.60;;;;;;;5.90;97.56;98971.94;4194547;28;20123;-76
2023/02/20 08:18:28;;;;;;;4.18;2.83;;;;;;;5.92;97.12;98966.94;4198274;28;20380;-76
2023/02/20 08:20:28;;;;;;;5.00;2.83;;;;;;;5.92;96.86;98958.69;4196669;28;20331;-76
2023/02/20 08:22:28;;;;;;;5.05;2.75;;;;;;;5.98;96.57;98962.03;4190560;28;20119;-77
2023/02/20 08:24:29;;;;;;;4.78;3.00;;;;;;;5.94;96.52;98959.16;4193310;28;20048;-77
2023/02/20 08:26:29;;;;;;;6.40;4.07;;;;;;;5.92;96.06;98966.94;4188689;28;20053;-76
2023/02/20 08:28:30;;;;;;;5.65;3.13;;;;;;;6.00;96.38;98974.28;4192236;28;20060;-77
2023/02/20 08:30:30;;;;;;;4.80;3.38;;;;;;;6.07;95.86;98969.06;4193839;28;20048;-77
2023/02/20 08:32:30;;;;;;;7.47;3.28;;;;;;;6.15;94.86;98953.66;4189234;28;20477;-77
2023/02/20 08:34:31;;;;;;;4.55;2.85;;;;;;;6.14;95.07;98963.84;4192726;28;20052;-76
2023/02/20 08:36:31;;;;;;;4.47;3.00;;;;;;;6.13;95.02;98964.97;4189316;28;20491;-76
2023/02/20 08:38:36;;;;;;;4.40;2.95;;;;;;;6.14;93.95;98947.34;4190069;28;20186;-77
2023/02/20 08:40:36;;;;;;;5.35;3.08;;;;;;;6.17;94.72;98934.88;4194745;28;20125;-77
2023/02/20 08:42:37;;;;;;;4.85;2.60;;;;;;;6.15;95.04;98943.47;4190832;28;20067;-76
2023/02/20 08:44:39;;;;;;;5.47;2.65;;;;;;;6.17;93.75;98938.44;4186654;28;20131;-77
2023/02/20 08:46:50;;;;;;;6.68;3.53;;;;;;;6.24;93.63;98940.63;4191105;28;20045;-77
2023/02/20 08:48:50;;;;;;;4.15;2.65;;;;;;;6.23;94.66;98940.97;4191445;28;20051;-76
2023/02/20 08:50:51;;;;;;;6.55;3.10;;;;;;;6.31;92.69;98948.34;4189116;28;20032;-76
2023/02/20 08:52:52;;;;;;;4.97;2.53;;;;;;;6.30;92.90;98928.28;4189703;28;20076;-76
2023/02/20 08:54:52;;;;;;;4.95;2.75;;;;;;;6.28;93.65;98936.06;4190580;28;20076;-76
2023/02/20 08:56:52;;;;;;;4.65;2.72;;;;;;;6.34;93.64;98931.16;4195082;28;20074;-77
2023/02/20 08:58:53;;;;;;;4.57;3.10;;;;;;;6.29;93.97;98921.19;4189718;28;20170;-77
2023/02/20 09:00:54;;;;;;;9.00;3.80;;;;;;;6.31;94.08;98918.09;4191212;28;20111;-76
2023/02/20 09:02:54;;;;;;;4.03;2.40;;;;;;;6.30;94.33;98916.50;4188127;28;20106;-77
2023/02/20 09:04:55;;;;;;;6.80;3.30;;;;;;;6.28;95.08;98932.50;4192726;28;20439;-77
2023/02/20 09:06:56;;;;;;;4.65;2.83;;;;;;;6.37;94.09;98911.22;4190536;28;20076;-77
2023/02/20 09:08:56;;;;;;;5.55;2.80;;;;;;;6.39;94.09;98911.72;4190895;28;20068;-77
2023/02/20 09:10:56;;;;;;;5.18;2.65;;;;;;;6.47;93.10;98911.63;4190520;28;20116;-76
2023/02/20 09:12:56;;;;;;;8.75;3.03;;;;;;;6.52;92.85;98918.81;4188815;28;20193;-77
2023/02/20 09:15:00;;;;;;;3.97;2.60;;;;;;;6.55;93.35;98914.63;4191944;28;20047;-76
2023/02/20 09:17:00;;;;;;;5.70;3.10;;;;;;;6.53;94.03;98928.69;4193959;28;20505;-77
2023/02/20 09:19:01;;;;;;;4.40;3.03;;;;;;;6.58;94.24;98919.44;4192559;28;20048;-77
2023/02/20 09:21:01;;;;;;;4.25;2.70;;;;;;;6.64;93.14;98915.31;4189670;28;20047;-77
2023/02/20 09:23:01;;;;;;;3.38;2.53;;;;;;;6.63;93.31;98909.03;4152182;28;1117285;-77
2023/02/20 09:25:03;;;;;;;6.57;2.53;;;;;;;6.68;93.04;98906.03;4197098;28;20052;-77
2023/02/20 09:27:07;;;;;;;3.83;2.70;;;;;;;6.75;93.83;98911.78;4193155;28;20051;-77
2023/02/20 09:29:08;;;;;;;3.85;2.55;;;;;;;6.79;92.17;98920.16;4191570;28;20048;-77
2023/02/20 09:31:08;;;;;;;5.20;2.63;;;;;;;6.87;92.13;98923.91;4190672;28;20067;-77
2023/02/20 09:33:08;;;;;;;4.65;2.70;;;;;;;6.86;92.49;98933.31;4190405;28;20036;-77
2023/02/20 09:35:16;;;;;;;5.63;2.70;;;;;;;6.86;92.99;98922.31;4190536;28;20567;-77
2023/02/20 09:37:16;;;;;;;6.75;3.10;;;;;;;6.86;93.93;98917.63;4195830;28;20047;-77
2023/02/20 09:39:16;;;;;;;4.40;3.13;;;;;;;6.85;94.37;98906.97;4193615;28;20084;-77
2023/02/20 09:41:45;;;;;;;4.10;2.60;;;;;;;6.85;93.66;98907.75;4192557;28;20467;-77
2023/02/20 09:44:35;;;;;;;7.32;3.60;;;;;;;6.85;94.89;98905.00;4187818;28;20153;-76
2023/02/20 09:46:36;;;;;;;7.03;3.05;;;;;;;6.88;95.06;98895.28;4189836;28;20594;-77
2023/02/20 09:48:55;;;;;;;6.57;3.47;;;;;;;6.96;94.37;98894.38;4190499;28;20048;-77
2023/02/20 09:51:00;;;;;;;3.53;2.38;;;;;;;7.01;95.56;98905.13;4190298;28;20053;-77
2023/02/20 09:53:21;;;;;;;4.13;2.80;;;;;;;7.03;94.28;98898.16;4191783;28;20046;-77
2023/02/20 09:55:24;;;;;;;7.30;3.10;;;;;;;7.00;94.96;98898.03;4189262;28;20102;-77
2023/02/20 09:57:26;;;;;;;;;;;;;;;7.08;94.62;98918.31;4190784;28;20051;-77